createdAt,value
2022-08-17T00:00:43.879Z,6.80
2022-08-17T00:03:10.988Z,5.88
2022-08-17T00:05:45.519Z,6.30
2022-08-17T00:08:15.293Z,6.63
2022-08-17T00:10:45.371Z,6.32
2022-08-17T00:13:16.681Z,6.22
2022-08-17T00:15:46.742Z,6.10
2022-08-17T00:19:01.222Z,5.80
2022-08-17T00:21:10.542Z,5.80
2022-08-17T00:23:47.749Z,4.53
2022-08-17T00:26:43.606Z,5.25
2022-08-17T00:29:08.651Z,5.18
2022-08-17T00:31:39.030Z,5.63
2022-08-17T00:34:08.758Z,4.88
2022-08-17T00:36:37.613Z,6.55
2022-08-17T00:39:06.140Z,5.63
2022-08-17T00:41:35.765Z,4.95
2022-08-17T00:44:05.842Z,4.70
2022-08-17T00:46:37.106Z,6.32
2022-08-17T00:49:08.265Z,5.20
2022-08-17T00:51:43.286Z,5.38
2022-08-17T00:54:14.951Z,5.50
2022-08-17T00:56:46.870Z,5.38
2022-08-17T00:59:24.728Z,6.65
2022-08-17T01:01:53.832Z,5.25
2022-08-17T01:04:23.773Z,5.45
2022-08-17T01:06:52.862Z,5.32
2022-08-17T01:09:21.700Z,5.60
2022-08-17T01:11:52.310Z,6.00
2022-08-17T01:14:21.503Z,5.75
2022-08-17T01:16:51.622Z,5.55
2022-08-17T01:19:22.782Z,5.70
2022-08-17T01:21:59.243Z,5.80
2022-08-17T01:24:31.211Z,6.57
2022-08-17T01:27:03.155Z,6.78
2022-08-17T01:29:41.969Z,6.25
2022-08-17T01:32:10.504Z,5.75
2022-08-17T01:34:43.796Z,6.15
2022-08-17T01:37:19.854Z,6.20
2022-08-17T01:39:55.076Z,5.93
2022-08-17T01:42:27.558Z,6.82
2022-08-17T01:44:59.621Z,5.57
2022-08-17T01:47:27.842Z,7.07
2022-08-17T01:49:58.101Z,7.72
2022-08-17T01:52:26.408Z,7.63
2022-08-17T01:54:56.500Z,7.40
2022-08-17T01:57:24.672Z,7.50
2022-08-17T01:59:52.906Z,8.05
2022-08-17T02:02:31.412Z,6.93
2022-08-17T02:05:00.284Z,7.68
2022-08-17T02:07:29.125Z,7.65
2022-08-17T02:09:58.865Z,7.53
2022-08-17T02:12:38.758Z,7.43
2022-08-17T02:15:09.252Z,6.75
2022-08-17T02:17:37.462Z,7.43
2022-08-17T02:20:07.673Z,6.90
2022-08-17T02:22:37.299Z,7.50
2022-08-17T02:25:10.593Z,6.95
2022-08-17T02:27:40.165Z,7.65
2022-08-17T02:31:00.815Z,7.75
2022-08-17T02:33:00.140Z,7.57
2022-08-17T02:35:32.558Z,7.45
2022-08-17T02:38:01.368Z,7.85
2022-08-17T02:40:35.763Z,7.88
2022-08-17T02:43:05.289Z,7.40
2022-08-17T02:45:33.531Z,7.20
2022-08-17T02:48:01.765Z,7.90
2022-08-17T02:50:30.014Z,6.00
2022-08-17T02:53:02.432Z,5.95
2022-08-17T02:55:37.615Z,6.47
2022-08-17T02:58:06.034Z,6.78
2022-08-17T03:00:41.034Z,6.85
2022-08-17T03:03:10.809Z,6.18
2022-08-17T03:05:39.808Z,8.55
2022-08-17T03:08:13.053Z,8.38
2022-08-17T03:10:43.969Z,9.00
2022-08-17T03:13:14.348Z,8.85
2022-08-17T03:15:45.756Z,6.80
2022-08-17T03:18:24.932Z,7.18
2022-08-17T03:20:56.471Z,6.93
2022-08-17T03:23:25.382Z,6.95
2022-08-17T03:25:56.228Z,7.45
2022-08-17T03:28:25.732Z,6.82
2022-08-17T03:30:54.427Z,6.85
2022-08-17T03:33:23.183Z,9.75
2022-08-17T03:35:51.594Z,8.23
2022-08-17T03:38:20.401Z,7.95
2022-08-17T03:40:56.487Z,7.82
2022-08-17T03:43:30.080Z,7.93
2022-08-17T03:46:33.981Z,7.78
2022-08-17T03:49:20.965Z,7.38
2022-08-17T03:52:07.087Z,9.00
2022-08-17T03:54:53.123Z,8.13
2022-08-17T03:57:21.615Z,9.90
2022-08-17T03:59:51.413Z,8.82
2022-08-17T04:02:24.098Z,10.48
2022-08-17T04:04:53.809Z,11.48
2022-08-17T04:07:23.545Z,8.50
2022-08-17T04:09:52.210Z,10.85
2022-08-17T04:12:22.430Z,11.35
2022-08-17T04:14:54.603Z,8.70
2022-08-17T04:17:25.473Z,8.32
2022-08-17T04:19:54.100Z,8.13
2022-08-17T04:22:30.152Z,9.38
2022-08-17T04:25:04.823Z,8.77
2022-08-17T04:27:33.246Z,8.10
2022-08-17T04:30:07.039Z,9.38
2022-08-17T04:33:03.383Z,8.60
2022-08-17T04:35:36.691Z,9.35
2022-08-17T04:38:05.051Z,9.50
2022-08-17T04:40:51.181Z,9.45
2022-08-17T04:43:21.556Z,9.10
2022-08-17T04:45:55.953Z,9.32
2022-08-17T04:48:29.792Z,9.60
2022-08-17T04:51:09.847Z,9.00
2022-08-17T04:53:39.648Z,8.05
2022-08-17T04:56:16.155Z,9.35
2022-08-17T04:58:46.635Z,8.43
2022-08-17T05:01:17.020Z,8.90
2022-08-17T05:03:52.064Z,9.50
2022-08-17T05:06:20.987Z,8.02
2022-08-17T05:08:49.598Z,8.52
2022-08-17T05:11:18.101Z,8.90
2022-08-17T05:13:46.488Z,8.27
2022-08-17T05:16:16.033Z,8.15
2022-08-17T05:18:44.288Z,8.55
2022-08-17T05:21:12.515Z,7.65
2022-08-17T05:23:43.295Z,8.10
2022-08-17T05:26:26.516Z,6.57
2022-08-17T05:29:02.505Z,8.40
2022-08-17T05:31:32.681Z,8.63
2022-08-17T05:34:00.966Z,8.50
2022-08-17T05:36:43.622Z,9.05
2022-08-17T05:39:16.097Z,8.07
2022-08-17T05:41:48.688Z,7.60
2022-08-17T05:44:17.943Z,7.88
2022-08-17T05:46:51.268Z,8.40
2022-08-17T05:49:23.050Z,8.48
2022-08-17T05:52:14.472Z,8.02
2022-08-17T05:55:10.994Z,7.18
2022-08-17T05:57:54.239Z,6.97
2022-08-17T06:00:30.647Z,7.97
2022-08-17T06:03:19.644Z,7.63
2022-08-17T06:06:14.598Z,7.72
2022-08-17T06:08:51.738Z,8.05
2022-08-17T06:11:28.856Z,7.72
2022-08-17T06:14:09.231Z,7.57
2022-08-17T06:16:41.093Z,8.82
2022-08-17T06:19:16.917Z,7.40
2022-08-17T06:21:48.341Z,8.15
2022-08-17T06:24:27.405Z,8.82
2022-08-17T06:26:58.376Z,7.35
2022-08-17T06:29:38.119Z,8.48
2022-08-17T06:32:08.817Z,7.65
2022-08-17T06:34:39.394Z,7.82
2022-08-17T06:37:20.227Z,8.05
2022-08-17T06:39:57.338Z,7.32
2022-08-17T06:43:05.353Z,8.57
2022-08-17T06:45:32.771Z,8.18
2022-08-17T06:48:05.751Z,7.88
2022-08-17T06:50:39.930Z,7.57
2022-08-17T06:53:21.025Z,7.30
2022-08-17T06:55:57.207Z,7.05
2022-08-17T06:58:29.755Z,7.65
2022-08-17T07:01:02.024Z,7.22
2022-08-17T07:03:37.796Z,6.78
2022-08-17T07:06:13.726Z,7.82
2022-08-17T07:08:52.060Z,6.57
2022-08-17T07:11:27.321Z,6.75
2022-08-17T07:14:05.837Z,6.65
2022-08-17T07:16:41.132Z,6.68
2022-08-17T07:19:11.204Z,6.53
2022-08-17T07:21:49.692Z,6.15
2022-08-17T07:24:41.486Z,6.68
2022-08-17T07:27:15.024Z,6.18
2022-08-17T07:29:50.429Z,5.65
2022-08-17T07:32:24.036Z,6.38
2022-08-17T07:35:15.706Z,6.18
2022-08-17T07:37:50.989Z,5.80
2022-08-17T07:40:33.433Z,5.50
2022-08-17T07:43:19.910Z,6.10
2022-08-17T07:46:19.184Z,4.53
2022-08-17T07:48:51.050Z,4.65
2022-08-17T07:51:26.229Z,4.97
2022-08-17T07:54:13.183Z,5.05
2022-08-17T07:56:46.332Z,5.00
2022-08-17T07:59:18.270Z,4.85
2022-08-17T08:02:06.086Z,4.85
2022-08-17T08:04:59.091Z,4.93
2022-08-17T08:07:29.520Z,4.93
2022-08-17T08:10:09.795Z,5.00
2022-08-17T08:12:39.749Z,4.32
2022-08-17T08:15:17.761Z,4.28
2022-08-17T08:17:52.894Z,4.72
2022-08-17T08:20:47.762Z,4.70
2022-08-17T08:23:28.592Z,4.55
2022-08-17T08:26:13.164Z,4.53
2022-08-17T08:28:48.038Z,3.92
2022-08-17T08:31:29.395Z,4.13
2022-08-17T08:34:44.554Z,4.55
2022-08-17T08:37:17.617Z,3.88
2022-08-17T08:39:57.685Z,4.18
2022-08-17T08:42:36.597Z,4.00
2022-08-17T08:45:16.080Z,4.10
2022-08-17T08:48:05.321Z,3.95
2022-08-17T08:50:45.985Z,4.50
2022-08-17T08:53:24.668Z,3.85
2022-08-17T08:55:56.960Z,4.13
2022-08-17T08:58:41.945Z,4.22
2022-08-17T09:01:26.387Z,4.57
2022-08-17T09:04:24.179Z,4.40
2022-08-17T09:07:06.451Z,3.35
2022-08-17T09:09:49.552Z,4.30
2022-08-17T09:12:26.425Z,3.90
2022-08-17T09:15:03.093Z,3.72
2022-08-17T09:17:37.421Z,3.80
2022-08-17T09:20:26.412Z,3.90
2022-08-17T09:23:04.077Z,4.28
2022-08-17T09:25:36.093Z,4.40
2022-08-17T09:28:08.232Z,4.35
2022-08-17T09:30:44.402Z,4.50
2022-08-17T09:33:16.979Z,3.95
2022-08-17T09:35:49.209Z,3.92
2022-08-17T09:38:27.076Z,4.32
2022-08-17T09:41:02.485Z,4.65
2022-08-17T09:43:39.935Z,4.22
2022-08-17T09:46:15.875Z,4.45
2022-08-17T09:48:50.727Z,4.18
2022-08-17T09:51:25.634Z,3.85
2022-08-17T09:53:54.277Z,4.68
2022-08-17T09:56:42.343Z,4.47
2022-08-17T09:59:27.431Z,4.22
2022-08-17T10:02:29.831Z,4.13
2022-08-17T10:05:04.796Z,4.20
2022-08-17T10:07:37.932Z,3.70
2022-08-17T10:10:14.568Z,4.10
2022-08-17T10:12:53.218Z,4.10
2022-08-17T10:15:36.645Z,4.05
2022-08-17T10:18:24.714Z,4.28
2022-08-17T10:21:24.519Z,4.10
2022-08-17T10:24:17.556Z,4.35
2022-08-17T10:26:56.675Z,3.60
2022-08-17T10:29:29.777Z,4.00
2022-08-17T10:32:11.607Z,3.95
2022-08-17T10:35:07.452Z,3.88
2022-08-17T10:38:05.128Z,3.63
2022-08-17T10:40:37.981Z,3.70
2022-08-17T10:43:24.730Z,3.33
2022-08-17T10:46:30.209Z,3.63
2022-08-17T10:49:23.200Z,3.70
2022-08-17T10:51:54.471Z,4.15
2022-08-17T10:54:58.068Z,4.00
2022-08-17T10:57:44.742Z,3.72
2022-08-17T11:00:16.532Z,3.83
2022-08-17T11:02:50.889Z,4.10
2022-08-17T11:05:43.832Z,3.95
2022-08-17T11:08:37.624Z,3.85
2022-08-17T11:11:35.732Z,3.70
2022-08-17T11:14:23.983Z,4.07
2022-08-17T11:17:08.149Z,3.92
2022-08-17T11:20:05.862Z,4.38
2022-08-17T11:23:00.036Z,4.20
2022-08-17T11:25:40.689Z,4.55
2022-08-17T11:28:16.895Z,4.10
2022-08-17T11:30:51.994Z,4.70
2022-08-17T11:33:57.500Z,4.35
2022-08-17T11:36:53.821Z,4.10
2022-08-17T11:39:54.458Z,4.22
2022-08-17T11:42:54.503Z,3.75
2022-08-17T11:45:47.891Z,4.30
2022-08-17T11:48:43.548Z,4.00
2022-08-17T11:51:32.124Z,4.70
2022-08-17T11:54:31.256Z,4.45
2022-08-17T11:56:54.057Z,4.43
2022-08-17T12:00:06.197Z,3.65
2022-08-17T12:02:48.107Z,4.35
2022-08-17T12:05:34.080Z,4.10
2022-08-17T12:08:11.785Z,4.18
2022-08-17T12:10:50.416Z,4.25
2022-08-17T12:13:19.942Z,4.20
2022-08-17T12:15:53.170Z,3.78
2022-08-17T12:18:23.284Z,3.75
2022-08-17T12:21:12.043Z,3.40
2022-08-17T12:23:52.784Z,3.65
2022-08-17T12:26:26.097Z,2.78
2022-08-17T12:28:59.696Z,3.38
2022-08-17T12:31:34.624Z,3.72
2022-08-17T12:34:03.985Z,3.55
2022-08-17T12:36:33.632Z,3.22
2022-08-17T12:39:14.317Z,2.92
2022-08-17T12:41:50.241Z,3.15
2022-08-17T12:44:21.565Z,2.55
2022-08-17T12:46:55.190Z,3.13
2022-08-17T12:49:30.501Z,2.60
2022-08-17T12:52:07.249Z,3.35
2022-08-17T12:54:42.093Z,2.40
2022-08-17T12:57:14.038Z,2.75
2022-08-17T12:59:45.304Z,2.90
2022-08-17T13:02:39.131Z,3.30
2022-08-17T13:05:09.503Z,2.83
2022-08-17T13:07:43.419Z,2.38
2022-08-17T13:10:22.357Z,3.03
2022-08-17T13:12:51.391Z,2.95
2022-08-17T13:15:29.595Z,2.70
2022-08-17T13:18:04.948Z,2.92
2022-08-17T13:20:33.806Z,3.15
2022-08-17T13:23:09.965Z,3.25
2022-08-17T13:25:40.342Z,2.97
2022-08-17T13:28:18.709Z,3.13
2022-08-17T13:31:24.066Z,3.10
2022-08-17T13:33:53.580Z,3.25
2022-08-17T13:36:33.575Z,3.70
2022-08-17T13:39:09.016Z,2.70
2022-08-17T13:41:38.986Z,3.20
2022-08-17T13:44:30.969Z,3.13
2022-08-17T13:47:00.567Z,3.35
2022-08-17T13:49:41.542Z,3.33
2022-08-17T13:52:38.060Z,2.75
2022-08-17T13:55:09.905Z,3.10
2022-08-17T13:57:38.219Z,2.97
2022-08-17T14:00:17.091Z,3.05
2022-08-17T14:02:45.186Z,3.25
2022-08-17T14:05:14.658Z,3.10
2022-08-17T14:07:42.777Z,3.20
2022-08-17T14:10:14.497Z,2.92
2022-08-17T14:12:44.845Z,3.15
2022-08-17T14:15:14.946Z,3.67
2022-08-17T14:17:43.302Z,3.13
2022-08-17T14:20:14.731Z,3.42
2022-08-17T14:22:48.189Z,3.60
2022-08-17T14:25:20.641Z,3.47
2022-08-17T14:27:52.864Z,3.13
2022-08-17T14:30:25.221Z,3.40
2022-08-17T14:32:53.663Z,3.53
2022-08-17T14:35:24.463Z,3.55
2022-08-17T14:37:53.339Z,3.33
2022-08-17T14:40:24.498Z,3.50
2022-08-17T14:42:54.284Z,3.33
2022-08-17T14:45:32.304Z,3.40
2022-08-17T14:48:03.893Z,3.28
2022-08-17T14:50:35.841Z,3.53
2022-08-17T14:53:05.090Z,3.35
2022-08-17T14:55:33.508Z,3.50
2022-08-17T14:58:01.564Z,3.03
2022-08-17T15:00:29.643Z,3.50
2022-08-17T15:03:00.882Z,3.92
2022-08-17T15:05:31.293Z,3.65
2022-08-17T15:08:03.088Z,4.07
2022-08-17T15:10:32.257Z,4.00
2022-08-17T15:13:01.010Z,3.80
2022-08-17T15:15:29.722Z,3.65
2022-08-17T15:17:59.104Z,3.38
2022-08-17T15:20:29.539Z,3.95
2022-08-17T15:22:59.036Z,4.53
2022-08-17T15:25:31.626Z,3.45
2022-08-17T15:28:00.457Z,3.67
2022-08-17T15:30:30.092Z,3.85
2022-08-17T15:32:58.937Z,4.10
2022-08-17T15:35:30.395Z,4.57
2022-08-17T15:38:03.534Z,3.92
2022-08-17T15:40:39.676Z,4.30
2022-08-17T15:43:08.351Z,4.28
2022-08-17T15:45:36.408Z,7.03
2022-08-17T15:48:04.850Z,5.82
2022-08-17T15:50:32.961Z,6.90
2022-08-17T15:53:03.523Z,7.90
2022-08-17T15:55:33.129Z,4.22
2022-08-17T15:58:03.037Z,4.45
2022-08-17T16:00:31.503Z,4.80
2022-08-17T16:03:44.913Z,4.90
2022-08-17T16:05:56.220Z,4.95
2022-08-17T16:08:25.310Z,4.47
2022-08-17T16:10:53.407Z,4.55
2022-08-17T16:13:24.014Z,4.18
2022-08-17T16:15:56.954Z,4.35
2022-08-17T16:18:30.689Z,5.10
2022-08-17T16:21:19.050Z,4.50
2022-08-17T16:23:47.413Z,4.72
2022-08-17T16:26:15.987Z,4.57
2022-08-17T16:28:45.629Z,5.00
2022-08-17T16:31:14.287Z,5.28
2022-08-17T16:33:42.864Z,5.40
2022-08-17T16:36:31.094Z,5.57
2022-08-17T16:38:59.324Z,5.72
2022-08-17T16:41:45.350Z,7.75
2022-08-17T16:44:16.991Z,8.18
2022-08-17T16:46:46.230Z,10.68
2022-08-17T16:49:36.188Z,11.18
2022-08-17T16:52:03.983Z,10.80
2022-08-17T16:54:32.659Z,11.88
2022-08-17T16:57:00.761Z,11.85
2022-08-17T16:59:41.840Z,10.57
2022-08-17T17:02:14.376Z,11.40
2022-08-17T17:04:47.425Z,10.88
2022-08-17T17:07:38.541Z,11.75
2022-08-17T17:10:11.049Z,10.90
2022-08-17T17:13:01.273Z,11.73
2022-08-17T17:15:54.240Z,11.73
2022-08-17T17:18:36.484Z,12.25
2022-08-17T17:21:06.256Z,12.35
2022-08-17T17:23:48.136Z,10.73
2022-08-17T17:26:46.312Z,12.43
2022-08-17T17:29:25.610Z,12.23
2022-08-17T17:32:09.373Z,12.90
2022-08-17T17:34:39.725Z,12.75
2022-08-17T17:37:14.405Z,12.77
2022-08-17T17:39:48.892Z,13.02
2022-08-17T17:42:19.973Z,13.50
2022-08-17T17:44:55.095Z,12.10
2022-08-17T17:47:24.560Z,13.98
2022-08-17T17:49:52.599Z,13.45
2022-08-17T17:52:28.300Z,13.63
2022-08-17T17:55:07.182Z,13.32
2022-08-17T17:57:45.402Z,13.38
2022-08-17T18:00:17.896Z,13.75
2022-08-17T18:03:00.849Z,13.48
2022-08-17T18:05:40.402Z,13.57
2022-08-17T18:08:31.973Z,13.15
2022-08-17T18:11:12.869Z,14.68
2022-08-17T18:13:56.593Z,14.70
2022-08-17T18:16:24.661Z,15.05
2022-08-17T18:18:54.189Z,13.40
2022-08-17T18:21:24.775Z,13.63
2022-08-17T18:23:58.157Z,13.98
2022-08-17T18:26:45.674Z,13.82
2022-08-17T18:29:24.125Z,13.05
2022-08-17T18:32:22.535Z,15.02
2022-08-17T18:34:54.746Z,14.15
2022-08-17T18:37:39.861Z,14.20
2022-08-17T18:40:35.425Z,13.98
2022-08-17T18:43:09.206Z,14.27
2022-08-17T18:45:41.320Z,13.98
2022-08-17T18:48:30.413Z,15.20
2022-08-17T18:51:39.889Z,14.38
2022-08-17T18:54:18.071Z,13.68
2022-08-17T18:56:51.819Z,13.93
2022-08-17T18:59:29.255Z,14.38
2022-08-17T19:02:32.508Z,13.52
2022-08-17T19:05:13.383Z,12.93
2022-08-17T19:07:45.660Z,14.75
2022-08-17T19:10:28.584Z,13.82
2022-08-17T19:13:12.809Z,14.23
2022-08-17T19:16:14.360Z,13.95
2022-08-17T19:18:40.569Z,13.80
2022-08-17T19:21:15.122Z,13.65
2022-08-17T19:23:53.831Z,13.52
2022-08-17T19:26:51.124Z,14.30
2022-08-17T19:29:16.519Z,13.65
2022-08-17T19:31:47.714Z,13.63
2022-08-17T19:34:33.475Z,12.88
2022-08-17T19:37:08.907Z,12.48
2022-08-17T19:39:49.200Z,13.38
2022-08-17T19:42:33.895Z,13.10
2022-08-17T19:45:08.506Z,13.80
2022-08-17T19:47:54.909Z,12.48
2022-08-17T19:50:38.321Z,12.63
2022-08-17T19:53:14.510Z,12.50
2022-08-17T19:55:52.127Z,12.18
2022-08-17T19:58:33.021Z,12.35
2022-08-17T20:01:03.064Z,13.13
2022-08-17T20:03:39.111Z,14.90
2022-08-17T20:06:13.822Z,13.02
2022-08-17T20:08:51.117Z,13.93
2022-08-17T20:11:24.743Z,14.10
2022-08-17T20:14:03.614Z,13.63
2022-08-17T20:16:33.695Z,13.52
2022-08-17T20:19:05.973Z,14.48
2022-08-17T20:21:40.169Z,14.02
2022-08-17T20:24:21.055Z,13.23
2022-08-17T20:26:57.887Z,15.45
2022-08-17T20:29:37.832Z,14.00
2022-08-17T20:32:26.952Z,13.85
2022-08-17T20:35:20.587Z,14.45
2022-08-17T20:37:56.304Z,14.38
2022-08-17T20:40:33.935Z,14.50
2022-08-17T20:43:45.774Z,15.07
2022-08-17T20:46:34.792Z,15.43
2022-08-17T20:49:18.911Z,13.45
2022-08-17T20:52:01.441Z,15.50
2022-08-17T20:54:49.709Z,16.17
2022-08-17T20:57:47.687Z,14.55
2022-08-17T21:00:45.613Z,16.92
2022-08-17T21:03:51.512Z,18.73
2022-08-17T21:06:23.355Z,18.23
2022-08-17T21:08:55.101Z,15.13
2022-08-17T21:12:04.661Z,15.88
2022-08-17T21:15:00.966Z,14.75
2022-08-17T21:17:42.969Z,14.52
2022-08-17T21:20:24.332Z,14.70
2022-08-17T21:23:04.180Z,16.20
2022-08-17T21:25:51.113Z,17.98
2022-08-17T21:28:30.029Z,17.58
2022-08-17T21:31:09.051Z,14.98
2022-08-17T21:33:40.283Z,13.45
2022-08-17T21:36:26.423Z,16.65
2022-08-17T21:39:08.669Z,16.15
2022-08-17T21:41:52.769Z,16.10
2022-08-17T21:44:30.476Z,16.63
2022-08-17T21:47:14.554Z,19.70
2022-08-17T21:49:44.285Z,17.67
2022-08-17T21:52:15.477Z,16.20
2022-08-17T21:54:50.968Z,16.92
2022-08-17T21:57:22.313Z,15.00
2022-08-17T21:59:54.807Z,15.48
2022-08-17T22:02:26.314Z,15.73
2022-08-17T22:05:01.416Z,14.80
2022-08-17T22:07:38.514Z,18.33
2022-08-17T22:10:09.227Z,16.70
2022-08-17T22:12:37.298Z,18.67
2022-08-17T22:15:09.672Z,15.48
2022-08-17T22:17:41.239Z,15.15
2022-08-17T22:20:14.234Z,16.35
2022-08-17T22:23:32.749Z,15.43
2022-08-17T22:26:04.013Z,15.73
2022-08-17T22:28:42.235Z,15.65
2022-08-17T22:31:14.513Z,15.88
2022-08-17T22:33:46.730Z,16.05
2022-08-17T22:36:29.242Z,15.57
2022-08-17T22:38:59.175Z,18.00
2022-08-17T22:41:41.177Z,17.15
2022-08-17T22:44:16.243Z,16.02
2022-08-17T22:46:58.819Z,19.92
2022-08-17T22:49:32.165Z,18.38
2022-08-17T22:52:09.118Z,16.38
2022-08-17T22:54:54.456Z,16.52
2022-08-17T22:57:41.795Z,16.23
2022-08-17T23:00:28.911Z,15.93
2022-08-17T23:03:17.553Z,15.27
2022-08-17T23:05:48.566Z,15.70
2022-08-17T23:08:21.258Z,19.42
2022-08-17T23:10:50.172Z,18.52
2022-08-17T23:13:18.282Z,18.83
2022-08-17T23:15:48.104Z,19.42
2022-08-17T23:18:17.748Z,19.77
2022-08-17T23:20:46.445Z,18.75
2022-08-17T23:23:15.787Z,19.67
2022-08-17T23:25:46.204Z,20.98
2022-08-17T23:28:16.919Z,16.67
2022-08-17T23:30:46.600Z,16.65
2022-08-17T23:33:19.933Z,16.73
2022-08-17T23:35:48.523Z,17.88
2022-08-17T23:38:16.581Z,17.30
2022-08-17T23:40:45.996Z,18.10
2022-08-17T23:43:23.905Z,18.70
2022-08-17T23:45:53.337Z,21.45
2022-08-17T23:48:35.937Z,23.25
2022-08-17T23:51:09.638Z,22.52
2022-08-17T23:53:40.240Z,23.05
2022-08-17T23:56:11.211Z,26.33
2022-08-17T23:58:41.949Z,22.13
